Time;durP1;ratioP1;P1;durP2;ratioP2;P2;SDS_P1;SDS_P2;PMS_P1;PMS_P2;Temp;Humidity;BMP_temperature;BMP_pressure;BME280_temperature;BME280_humidity;BME280_pressure;Samples;Min_cycle;Max_cycle;Signal;HPM_P1;HPM_P2
2022/05/26 00:01:40;;;;;;;1.48;1.30;;;12.30;99.90;;;;;;5025946;28;20724;-72
2022/05/26 00:04:06;;;;;;;1.77;1.38;;;12.40;99.90;;;;;;5023409;28;20025;-72
2022/05/26 00:06:32;;;;;;;3.85;1.58;;;12.70;99.90;;;;;;5025016;28;20473;-72
2022/05/26 00:08:59;;;;;;;4.00;1.38;;;12.60;99.90;;;;;;5023382;28;20037;-71
2022/05/26 00:11:28;;;;;;;1.77;1.40;;;12.50;99.90;;;;;;5059107;22;20048;-76
2022/05/26 00:13:55;;;;;;;2.47;1.10;;;12.60;99.90;;;;;;5034699;28;20032;-76
2022/05/26 00:16:21;;;;;;;2.80;1.33;;;12.70;99.90;;;;;;5039653;28;20017;-75
2022/05/26 00:18:47;;;;;;;1.45;1.10;;;12.80;99.90;;;;;;5037064;28;20386;-76
2022/05/26 00:21:13;;;;;;;2.33;1.40;;;12.80;99.90;;;;;;5053414;28;20122;-76
2022/05/26 00:23:38;;;;;;;4.30;1.35;;;12.90;99.90;;;;;;5046701;28;20033;-76
2022/05/26 00:26:04;;;;;;;3.88;1.30;;;13.00;99.90;;;;;;5028096;28;20055;-77
2022/05/26 00:28:31;;;;;;;1.55;1.17;;;13.10;99.90;;;;;;5049743;28;20035;-77
2022/05/26 00:30:57;;;;;;;1.30;1.15;;;13.20;99.90;;;;;;5042689;28;20067;-77
2022/05/26 00:33:22;;;;;;;3.40;1.20;;;13.20;99.90;;;;;;5042885;28;20498;-76
2022/05/26 00:35:48;;;;;;;2.70;1.17;;;13.20;99.90;;;;;;5031151;28;20120;-77
2022/05/26 00:38:14;;;;;;;2.67;1.48;;;13.20;99.90;;;;;;5049133;28;20093;-77
2022/05/26 00:40:41;;;;;;;2.45;1.50;;;13.00;99.90;;;;;;5043228;28;20040;-77
2022/05/26 00:43:08;;;;;;;2.75;1.30;;;12.80;99.90;;;;;;5042385;28;20033;-77
2022/05/26 00:45:53;;;;;;;2.42;1.13;;;13.00;99.90;;;;;;5030222;28;20455;-76
2022/05/26 00:48:22;;;;;;;2.10;1.40;;;13.10;99.90;;;;;;5019859;28;20033;-76
2022/05/26 00:50:55;;;;;;;2.40;1.30;;;13.20;99.90;;;;;;5044001;28;20026;-76
2022/05/26 00:53:35;;;;;;;2.72;1.23;;;13.20;99.90;;;;;;5030122;28;20026;-76
2022/05/26 00:56:26;;;;;;;2.20;1.27;;;13.10;99.90;;;;;;5030991;28;20490;-77
2022/05/26 00:58:57;;;;;;;1.90;1.15;;;13.10;99.90;;;;;;5050817;28;20061;-75
2022/05/26 01:01:24;;;;;;;2.25;1.23;;;13.00;99.90;;;;;;5043582;28;20024;-77
2022/05/26 01:03:57;;;;;;;2.28;1.40;;;13.10;99.90;;;;;;5018851;28;20029;-78
2022/05/26 01:06:33;;;;;;;2.15;1.20;;;13.20;99.90;;;;;;5023334;28;20041;-76
2022/05/26 01:09:02;;;;;;;2.53;1.30;;;13.20;99.90;;;;;;5042932;28;20021;-76
2022/05/26 01:11:31;;;;;;;1.67;1.27;;;13.20;99.90;;;;;;5024286;28;20040;-77
2022/05/26 01:14:10;;;;;;;2.50;1.45;;;13.20;99.90;;;;;;5024143;28;20099;-76
2022/05/26 01:16:51;;;;;;;2.38;1.20;;;13.10;99.90;;;;;;5027700;28;20025;-78
2022/05/26 01:19:22;;;;;;;5.53;1.08;;;13.20;99.90;;;;;;5033775;28;20028;-78
2022/05/26 01:21:57;;;;;;;3.70;1.30;;;13.30;99.90;;;;;;5048256;28;20382;-79
2022/05/26 01:24:45;;;;;;;1.37;1.20;;;13.30;99.90;;;;;;5038607;28;20033;-77
2022/05/26 01:27:19;;;;;;;3.92;1.40;;;13.30;99.90;;;;;;5025205;28;20048;-76
2022/05/26 01:30:19;;;;;;;3.28;1.27;;;13.30;99.90;;;;;;5037013;28;20117;-78
2022/05/26 01:32:52;;;;;;;1.75;1.00;;;13.20;99.90;;;;;;5026559;28;20040;-77
2022/05/26 01:35:42;;;;;;;2.38;1.38;;;13.10;99.90;;;;;;5042729;28;20512;-77
2022/05/26 01:38:36;;;;;;;1.75;1.38;;;13.40;99.90;;;;;;5041275;28;20418;-75
2022/05/26 01:41:37;;;;;;;3.25;1.35;;;13.40;99.90;;;;;;5032737;28;20021;-75
2022/05/26 01:44:20;;;;;;;3.42;1.30;;;13.40;99.90;;;;;;4990933;28;20029;-76
2022/05/26 01:46:47;;;;;;;2.53;1.40;;;13.40;99.90;;;;;;5046791;28;20057;-76
2022/05/26 01:49:38;;;;;;;1.83;1.17;;;13.30;99.90;;;;;;5043775;28;20406;-76
2022/05/26 01:52:13;;;;;;;2.53;1.27;;;13.20;99.90;;;;;;5039700;28;20028;-76
2022/05/26 01:55:00;;;;;;;2.65;1.30;;;13.20;99.90;;;;;;5039869;28;20025;-75
2022/05/26 01:57:38;;;;;;;3.65;1.23;;;13.30;99.90;;;;;;5025364;28;20104;-76
2022/05/26 02:00:12;;;;;;;2.22;1.00;;;13.40;99.90;;;;;;5039283;28;20021;-76
2022/05/26 02:02:42;;;;;;;1.92;1.27;;;13.20;99.90;;;;;;5021405;28;20022;-75
2022/05/26 02:05:14;;;;;;;2.50;1.30;;;13.20;99.90;;;;;;5045525;28;20022;-75
2022/05/26 02:07:52;;;;;;;1.98;1.20;;;13.10;99.90;;;;;;5033507;28;20116;-77
2022/05/26 02:10:46;;;;;;;3.10;1.30;;;13.10;99.90;;;;;;5033502;28;20065;-78
2022/05/26 02:13:26;;;;;;;4.35;1.75;;;13.00;99.90;;;;;;5042729;28;20385;-78
2022/05/26 02:15:56;;;;;;;2.70;1.30;;;13.00;99.90;;;;;;5020273;28;20022;-76
2022/05/26 02:18:29;;;;;;;3.33;1.42;;;13.10;99.90;;;;;;5025560;28;20107;-76
2022/05/26 02:20:58;;;;;;;3.92;1.40;;;13.10;99.90;;;;;;5038747;28;20032;-77
2022/05/26 02:24:13;;;;;;;5.20;1.20;;;13.10;99.90;;;;;;5023127;28;20036;-76
2022/05/26 02:26:39;;;;;;;2.67;1.30;;;13.10;99.90;;;;;;5031906;28;20044;-76
2022/05/26 02:31:50;;;;;;;1.80;1.17;;;13.00;99.90;;;;;;5037752;28;20414;-77
2022/05/26 02:34:18;;;;;;;3.35;1.50;;;13.00;99.90;;;;;;5022758;28;20029;-76
2022/05/26 02:36:46;;;;;;;3.25;1.30;;;12.80;99.90;;;;;;5039292;28;20014;-76
2022/05/26 02:39:12;;;;;;;2.22;1.38;;;12.70;99.90;;;;;;5034281;28;20029;-77
2022/05/26 02:41:39;;;;;;;6.28;1.48;;;12.70;99.90;;;;;;5040052;28;20036;-77
2022/05/26 02:44:06;;;;;;;2.75;1.30;;;12.70;99.90;;;;;;5053863;28;20116;-77
2022/05/26 02:47:04;;;;;;;3.05;1.35;;;12.60;99.90;;;;;;5026764;28;20032;-75
2022/05/26 02:49:32;;;;;;;1.55;1.15;;;12.60;99.90;;;;;;5057882;28;20491;-77
2022/05/26 02:52:30;;;;;;;1.35;1.20;;;12.60;99.90;;;;;;5043036;28;20127;-78
2022/05/26 02:55:22;;;;;;;2.40;1.50;;;12.50;99.90;;;;;;4995774;28;20105;-75
2022/05/26 02:58:05;;;;;;;2.30;1.73;;;12.40;99.90;;;;;;5033252;28;20033;-76
2022/05/26 03:00:36;;;;;;;2.10;1.33;;;12.40;99.90;;;;;;5032286;28;20030;-76
2022/05/26 03:03:22;;;;;;;1.83;1.52;;;12.50;99.90;;;;;;5027990;28;20064;-75
2022/05/26 03:05:57;;;;;;;3.90;1.45;;;12.40;99.90;;;;;;5045262;28;20032;-74
2022/05/26 03:08:25;;;;;;;2.80;1.38;;;12.50;99.90;;;;;;5040418;28;20017;-76
2022/05/26 03:11:00;;;;;;;3.80;1.88;;;12.50;99.90;;;;;;5037674;28;20107;-76
2022/05/26 03:13:25;;;;;;;3.08;1.35;;;12.30;99.90;;;;;;5042545;28;20037;-75
2022/05/26 03:15:52;;;;;;;1.58;1.40;;;12.20;99.90;;;;;;5027296;28;20026;-75
2022/05/26 03:18:18;;;;;;;2.05;1.60;;;12.30;99.90;;;;;;5041823;28;20040;-76
2022/05/26 03:20:43;;;;;;;2.63;1.40;;;12.30;99.90;;;;;;5033222;28;20482;-76
2022/05/26 03:23:09;;;;;;;1.65;1.40;;;12.40;99.90;;;;;;5041991;28;20076;-76
2022/05/26 03:25:34;;;;;;;2.50;1.40;;;12.50;99.90;;;;;;5041257;28;20129;-77
2022/05/26 03:28:00;;;;;;;2.90;1.40;;;12.50;99.90;;;;;;5026620;28;20036;-78
2022/05/26 03:30:25;;;;;;;2.67;1.40;;;12.50;99.90;;;;;;5047737;28;20095;-79
2022/05/26 03:32:51;;;;;;;2.30;1.30;;;12.50;99.90;;;;;;5047284;28;20033;-79
2022/05/26 03:40:57;;;;;;;2.05;1.50;;;12.40;99.90;;;;;;5037239;28;20038;-79
2022/05/26 03:43:35;;;;;;;1.70;1.45;;;12.40;99.90;;;;;;5050401;28;20100;-78
2022/05/26 03:46:01;;;;;;;3.67;1.30;;;12.40;99.90;;;;;;5034928;28;20025;-76
2022/05/26 03:48:27;;;;;;;1.88;1.30;;;12.50;99.90;;;;;;5044770;28;20053;-76
2022/05/26 03:50:53;;;;;;;2.35;1.40;;;12.50;99.90;;;;;;5031517;28;20025;-75
2022/05/26 03:53:18;;;;;;;3.97;1.40;;;12.60;99.90;;;;;;5036603;28;20025;-77
2022/05/26 03:55:44;;;;;;;2.63;1.30;;;12.70;99.90;;;;;;5032525;28;20112;-77
2022/05/26 03:58:10;;;;;;;2.45;1.38;;;12.80;99.90;;;;;;5041842;28;20017;-78
2022/05/26 04:00:35;;;;;;;2.03;1.17;;;12.90;99.90;;;;;;5034088;28;20477;-75
2022/05/26 04:03:01;;;;;;;1.90;1.30;;;12.90;99.90;;;;;;5052899;28;20025;-76
2022/05/26 04:05:27;;;;;;;4.30;1.40;;;12.90;99.90;;;;;;5047374;28;20028;-75
2022/05/26 04:07:53;;;;;;;4.15;1.50;;;12.90;99.90;;;;;;5042090;28;20108;-77
2022/05/26 04:10:19;;;;;;;3.13;1.50;;;12.90;99.90;;;;;;5025129;28;20038;-77
2022/05/26 04:12:45;;;;;;;1.98;1.25;;;12.90;99.90;;;;;;5030727;28;20036;-78
2022/05/26 04:15:13;;;;;;;3.15;1.60;;;13.00;99.90;;;;;;5030352;28;20020;-76
2022/05/26 04:17:38;;;;;;;2.10;1.27;;;13.10;99.90;;;;;;5043934;28;20025;-78
2022/05/26 04:20:06;;;;;;;2.05;1.15;;;12.80;99.90;;;;;;5047526;28;20029;-77
2022/05/26 04:22:32;;;;;;;1.58;1.17;;;13.00;99.90;;;;;;5033740;28;20030;-76
2022/05/26 04:24:58;;;;;;;2.45;1.60;;;13.10;99.90;;;;;;5032225;28;20581;-76
2022/05/26 04:27:27;;;;;;;2.17;1.20;;;13.10;99.90;;;;;;5041249;28;20115;-77
2022/05/26 04:29:53;;;;;;;3.15;1.27;;;13.10;99.90;;;;;;5045642;28;20071;-77
2022/05/26 04:32:21;;;;;;;2.15;1.20;;;13.20;99.90;;;;;;5041243;28;20025;-77
2022/05/26 04:34:48;;;;;;;1.63;1.20;;;13.20;99.90;;;;;;5061120;28;20124;-77
2022/05/26 04:37:15;;;;;;;2.33;1.58;;;13.30;99.90;;;;;;5046087;28;20071;-77
2022/05/26 04:39:40;;;;;;;1.30;1.13;;;13.30;99.90;;;;;;5045614;28;20021;-77
2022/05/26 04:42:06;;;;;;;1.65;1.20;;;13.40;99.90;;;;;;5049057;28;20105;-76
2022/05/26 04:44:36;;;;;;;2.03;1.23;;;13.40;99.90;;;;;;5032099;28;20033;-76
2022/05/26 04:47:04;;;;;;;1.80;1.13;;;13.50;99.90;;;;;;5042217;28;20143;-76
2022/05/26 04:49:30;;;;;;;1.48;1.38;;;13.50;99.90;;;;;;5042244;28;20418;-79
2022/05/26 04:51:56;;;;;;;1.30;1.20;;;13.50;99.90;;;;;;5049718;28;20033;-77
2022/05/26 04:54:21;;;;;;;2.03;1.30;;;13.50;99.90;;;;;;5052210;28;20021;-77
2022/05/26 04:56:47;;;;;;;2.65;1.30;;;13.50;99.90;;;;;;5042217;28;20021;-77
2022/05/26 04:59:12;;;;;;;3.63;1.30;;;13.60;99.90;;;;;;5041786;28;20101;-77
2022/05/26 05:01:38;;;;;;;3.50;1.40;;;13.60;99.90;;;;;;5028619;28;20572;-79
2022/05/26 05:04:04;;;;;;;4.43;1.33;;;13.70;99.90;;;;;;5030807;28;20548;-77
2022/05/26 05:06:29;;;;;;;1.67;1.05;;;13.70;99.90;;;;;;5026427;28;20538;-77
2022/05/26 05:08:55;;;;;;;4.10;1.27;;;13.70;99.90;;;;;;5023155;28;20030;-77
2022/05/26 05:11:21;;;;;;;1.70;1.17;;;13.90;99.90;;;;;;5040208;28;20071;-76
2022/05/26 05:13:47;;;;;;;3.38;0.98;;;14.10;99.90;;;;;;5040573;28;20096;-77
2022/05/26 05:16:27;;;;;;;1.98;1.10;;;14.10;99.90;;;;;;5047250;28;20025;-75
2022/05/26 05:18:53;;;;;;;2.50;1.17;;;14.30;99.90;;;;;;5021130;28;20502;-77
2022/05/26 05:21:23;;;;;;;3.35;1.08;;;14.30;99.90;;;;;;5037903;28;20030;-75
2022/05/26 05:23:56;;;;;;;2.20;0.98;;;14.30;99.90;;;;;;5047816;28;20083;-76
2022/05/26 05:26:23;;;;;;;2.40;1.17;;;14.40;99.90;;;;;;5026832;28;20025;-76
2022/05/26 05:28:54;;;;;;;1.52;1.00;;;14.40;99.90;;;;;;5023766;28;20039;-78
2022/05/26 05:31:27;;;;;;;2.55;1.20;;;14.60;99.90;;;;;;5031570;28;20025;-78
2022/05/26 05:33:57;;;;;;;5.65;1.10;;;14.70;99.90;;;;;;5028539;28;20037;-77
2022/05/26 05:36:31;;;;;;;2.60;1.40;;;14.80;99.90;;;;;;5033838;28;20053;-76
2022/05/26 05:38:59;;;;;;;1.75;0.80;;;14.90;99.90;;;;;;5040558;28;20033;-76
2022/05/26 05:41:26;;;;;;;1.60;1.02;;;14.80;99.90;;;;;;5022851;28;20021;-77
2022/05/26 05:43:52;;;;;;;2.17;1.02;;;14.90;99.90;;;;;;5029459;28;20041;-77
2022/05/26 05:46:21;;;;;;;4.38;1.08;;;15.00;99.90;;;;;;5016575;28;20049;-77
2022/05/26 05:48:47;;;;;;;1.92;0.90;;;14.90;99.90;;;;;;5041676;28;20028;-76
2022/05/26 05:51:14;;;;;;;4.60;0.95;;;14.80;99.90;;;;;;5042436;28;20028;-77
2022/05/26 05:53:40;;;;;;;4.07;1.00;;;14.30;99.90;;;;;;5028584;28;20021;-76
2022/05/26 05:56:06;;;;;;;2.47;0.95;;;14.80;99.90;;;;;;5048852;28;20035;-76
2022/05/26 05:58:32;;;;;;;1.90;0.90;;;15.20;99.90;;;;;;5046056;28;20026;-77
2022/05/26 06:00:57;;;;;;;1.52;0.98;;;15.50;99.90;;;;;;5047222;28;20016;-76
2022/05/26 06:03:29;;;;;;;3.42;1.08;;;15.50;99.90;;;;;;5023884;28;20036;-76
2022/05/26 06:05:59;;;;;;;1.67;0.93;;;15.70;99.90;;;;;;5040981;28;20037;-77
2022/05/26 06:08:24;;;;;;;1.48;1.10;;;15.70;99.90;;;;;;5036424;28;20090;-77
2022/05/26 06:10:50;;;;;;;2.25;1.10;;;15.70;99.90;;;;;;5051264;28;20036;-76
2022/05/26 06:13:16;;;;;;;3.97;1.10;;;15.90;99.90;;;;;;5041233;28;20433;-77
2022/05/26 06:15:46;;;;;;;1.75;0.93;;;15.80;99.90;;;;;;5039413;28;20032;-77
2022/05/26 06:18:12;;;;;;;1.98;0.90;;;15.70;99.90;;;;;;5043802;28;20044;-76
2022/05/26 06:20:38;;;;;;;2.67;0.98;;;15.70;99.90;;;;;;5029131;28;20021;-76
2022/05/26 06:23:03;;;;;;;1.85;0.70;;;15.70;99.90;;;;;;5042524;28;20025;-76
2022/05/26 06:25:29;;;;;;;1.15;0.80;;;15.70;99.90;;;;;;5038125;28;20034;-77
2022/05/26 06:30:38;;;;;;;1.83;0.90;;;15.80;99.90;;;;;;5039398;28;20035;-77
2022/05/26 06:38:36;;;;;;;1.77;1.10;;;15.80;99.90;;;;;;5039443;28;20110;-76
2022/05/26 06:43:51;;;;;;;3.40;1.00;;;16.00;99.90;;;;;;5053288;28;20040;-76
2022/05/26 06:46:16;;;;;;;3.03;1.08;;;15.90;99.90;;;;;;5040258;28;20027;-77
2022/05/26 06:48:42;;;;;;;1.52;0.90;;;15.90;99.90;;;;;;5046791;28;20101;-77
2022/05/26 06:51:08;;;;;;;1.27;0.80;;;15.90;99.90;;;;;;5044470;28;20021;-76
2022/05/26 06:53:33;;;;;;;1.13;0.90;;;15.80;99.90;;;;;;5046353;28;20502;-77
2022/05/26 06:55:59;;;;;;;3.70;1.30;;;15.60;99.90;;;;;;5027498;28;20017;-77
2022/05/26 06:58:26;;;;;;;2.33;0.90;;;16.00;99.90;;;;;;5040512;28;20131;-77
2022/05/26 07:00:52;;;;;;;1.92;0.90;;;16.20;99.90;;;;;;5041167;28;20430;-76
2022/05/26 07:03:17;;;;;;;2.15;1.08;;;16.10;99.90;;;;;;5046017;28;20033;-77
2022/05/26 07:05:43;;;;;;;3.25;0.82;;;16.10;99.90;;;;;;5045587;28;20036;-77
2022/05/26 07:08:08;;;;;;;2.45;1.13;;;16.20;99.90;;;;;;5022510;28;20033;-77
2022/05/26 07:10:34;;;;;;;1.20;0.77;;;16.20;99.90;;;;;;5022262;28;20034;-76
2022/05/26 07:13:00;;;;;;;1.27;0.75;;;16.40;99.90;;;;;;5031916;28;20423;-77
2022/05/26 07:15:26;;;;;;;3.38;0.90;;;16.30;99.90;;;;;;5030622;28;20025;-77
2022/05/26 07:17:51;;;;;;;2.30;0.90;;;16.50;99.90;;;;;;5036654;28;20032;-77
2022/05/26 07:20:17;;;;;;;2.38;0.82;;;16.50;99.90;;;;;;5030119;28;20471;-76
2022/05/26 07:22:43;;;;;;;1.55;0.90;;;16.50;99.90;;;;;;5035338;28;20033;-77
2022/05/26 07:25:10;;;;;;;2.70;0.90;;;16.40;99.90;;;;;;5028321;28;20021;-76
2022/05/26 07:27:35;;;;;;;1.92;0.90;;;16.40;99.90;;;;;;5020352;28;20021;-77
2022/05/26 07:30:01;;;;;;;3.30;1.00;;;16.40;99.90;;;;;;5051585;28;20078;-78
2022/05/26 07:32:27;;;;;;;2.83;1.13;;;16.50;99.90;;;;;;5037897;28;20101;-77
2022/05/26 07:34:52;;;;;;;1.20;0.98;;;16.50;99.90;;;;;;5039620;28;20030;-76
2022/05/26 07:42:47;;;;;;;3.05;0.90;;;16.40;99.90;;;;;;5042955;28;20389;-77
2022/05/26 07:45:13;;;;;;;2.38;0.80;;;16.30;99.90;;;;;;5045402;28;20030;-76
2022/05/26 07:47:39;;;;;;;2.97;1.23;;;16.40;99.90;;;;;;5042575;28;20023;-77
2022/05/26 07:50:07;;;;;;;1.88;1.00;;;16.40;99.90;;;;;;5019926;28;20032;-77
2022/05/26 07:52:32;;;;;;;4.15;1.00;;;16.20;99.90;;;;;;5022760;28;20022;-77
2022/05/26 07:54:58;;;;;;;1.85;0.80;;;16.10;99.90;;;;;;5046264;28;20112;-77
2022/05/26 07:57:26;;;;;;;1.75;0.88;;;16.10;99.90;;;;;;5038400;28;20091;-77
2022/05/26 07:59:52;;;;;;;1.52;0.65;;;16.10;99.90;;;;;;5038128;28;20104;-78
2022/05/26 08:02:19;;;;;;;1.70;0.70;;;16.30;99.90;;;;;;5023192;28;20111;-77
2022/05/26 08:04:44;;;;;;;2.55;0.90;;;16.50;99.90;;;;;;5027313;28;20026;-77
2022/05/26 08:07:10;;;;;;;1.08;0.60;;;16.80;99.90;;;;;;5024498;28;20028;-77
2022/05/26 08:09:40;;;;;;;1.58;0.60;;;16.90;99.90;;;;;;5038204;28;20414;-77
2022/05/26 08:12:11;;;;;;;1.88;0.73;;;16.80;99.90;;;;;;5040238;28;20399;-77
2022/05/26 08:14:38;;;;;;;1.27;0.60;;;17.00;99.90;;;;;;5026820;28;20040;-77
2022/05/26 08:17:04;;;;;;;2.30;0.73;;;16.80;99.90;;;;;;5025620;28;20094;-76
2022/05/26 08:19:29;;;;;;;1.40;0.88;;;17.10;99.90;;;;;;5026841;28;20065;-78
2022/05/26 08:21:55;;;;;;;2.55;0.90;;;17.00;99.90;;;;;;5044310;28;20083;-77
2022/05/26 08:24:22;;;;;;;1.65;0.85;;;17.10;99.90;;;;;;5038320;28;20075;-76
2022/05/26 08:26:48;;;;;;;1.85;0.70;;;17.00;99.90;;;;;;5033153;28;20521;-77
2022/05/26 08:29:14;;;;;;;1.83;0.90;;;17.30;99.90;;;;;;5021478;28;20115;-77
2022/05/26 08:31:39;;;;;;;2.40;0.70;;;17.30;99.90;;;;;;5038067;28;20053;-77
2022/05/26 08:34:05;;;;;;;3.80;0.75;;;16.90;99.90;;;;;;5026641;28;20376;-77
2022/05/26 08:36:34;;;;;;;1.50;0.80;;;16.90;99.90;;;;;;5045254;28;20021;-77
2022/05/26 08:38:59;;;;;;;1.17;0.47;;;17.00;99.90;;;;;;5034332;28;20053;-76
2022/05/26 08:41:30;;;;;;;1.27;0.80;;;16.90;99.90;;;;;;5036389;28;20106;-77
2022/05/26 08:44:04;;;;;;;1.67;0.80;;;17.10;99.90;;;;;;5043707;28;20033;-77
2022/05/26 08:46:54;;;;;;;2.05;0.70;;;17.00;99.90;;;;;;5023917;28;20025;-77
2022/05/26 08:49:22;;;;;;;1.23;1.00;;;16.60;99.90;;;;;;5055341;28;20454;-77
2022/05/26 08:51:55;;;;;;;3.22;0.70;;;16.40;99.90;;;;;;5041097;28;20100;-77
2022/05/26 08:54:30;;;;;;;1.08;0.50;;;16.40;99.90;;;;;;5023850;28;20066;-77
2022/05/26 08:56:58;;;;;;;0.75;0.70;;;16.20;99.90;;;;;;5045970;28;20489;-77
2022/05/26 08:59:39;;;;;;;2.40;0.75;;;16.30;99.90;;;;;;5050868;28;20502;-77
2022/05/26 09:02:11;;;;;;;2.15;0.85;;;16.40;99.90;;;;;;5038234;28;20025;-77
2022/05/26 09:04:37;;;;;;;2.13;0.65;;;16.40;99.90;;;;;;5053349;28;20029;-76
2022/05/26 09:12:58;;;;;;;1.13;0.82;;;16.20;99.90;;;;;;5046528;28;20530;-76
2022/05/26 09:15:28;;;;;;;1.92;0.90;;;16.20;99.90;;;;;;5033040;28;20044;-76
2022/05/26 09:17:55;;;;;;;1.20;0.90;;;16.20;99.90;;;;;;5041984;28;20021;-77
2022/05/26 09:20:35;;;;;;;2.28;0.90;;;16.30;99.90;;;;;;5035374;28;20017;-77
2022/05/26 09:23:10;;;;;;;2.40;0.98;;;16.30;99.90;;;;;;5026523;28;20025;-77
2022/05/26 09:25:43;;;;;;;1.67;0.75;;;16.40;99.90;;;;;;5054063;28;20060;-77
2022/05/26 09:28:12;;;;;;;2.00;0.90;;;16.60;99.90;;;;;;5036775;28;20060;-78
2022/05/26 09:30:38;;;;;;;0.77;0.70;;;16.90;99.90;;;;;;5053785;28;20505;-81
2022/05/26 09:33:26;;;;;;;2.13;0.68;;;17.10;99.90;;;;;;5023249;28;20033;-77
2022/05/26 09:35:51;;;;;;;1.77;0.90;;;17.20;99.90;;;;;;5040672;28;20482;-77
2022/05/26 09:38:19;;;;;;;0.93;0.77;;;17.70;99.90;;;;;;5040200;28;20103;-76
2022/05/26 09:40:48;;;;;;;2.28;0.80;;;17.60;99.90;;;;;;5045334;28;20092;-77
2022/05/26 09:43:17;;;;;;;0.80;0.80;;;17.50;99.90;;;;;;5030056;28;20078;-77
2022/05/26 09:45:46;;;;;;;3.58;0.60;;;17.20;99.90;;;;;;5043933;28;20029;-77
2022/05/26 09:48:29;;;;;;;0.98;0.68;;;17.00;99.90;;;;;;5022472;28;20035;-76
2022/05/26 09:51:21;;;;;;;1.50;0.90;;;16.80;99.90;;;;;;5041559;28;20022;-77
2022/05/26 09:53:50;;;;;;;0.95;0.70;;;16.80;99.90;;;;;;5042674;28;20028;-77
2022/05/26 09:56:39;;;;;;;2.63;1.00;;;16.90;99.90;;;;;;5040675;28;20018;-77
2022/05/26 09:59:29;;;;;;;1.73;0.70;;;17.20;99.90;;;;;;5041938;28;20034;-78
2022/05/26 10:02:19;;;;;;;2.78;0.70;;;17.20;99.90;;;;;;5025217;28;20025;-77
2022/05/26 10:05:03;;;;;;;1.70;0.50;;;17.30;99.90;;;;;;5023535;28;20028;-77
2022/05/26 10:07:31;;;;;;;0.60;0.60;;;17.30;99.90;;;;;;5023647;28;20025;-77
2022/05/26 10:10:16;;;;;;;1.50;0.63;;;17.30;99.90;;;;;;5028163;28;20072;-77
2022/05/26 10:12:50;;;;;;;0.82;0.60;;;17.40;99.90;;;;;;5047892;28;20491;-78
2022/05/26 10:15:24;;;;;;;1.05;0.55;;;17.50;99.90;;;;;;5029039;28;20475;-78
2022/05/26 10:18:18;;;;;;;1.15;0.70;;;17.50;99.90;;;;;;5035877;28;20471;-77
2022/05/26 10:21:02;;;;;;;1.33;0.73;;;17.30;99.90;;;;;;5032944;28;20025;-78
2022/05/26 10:23:55;;;;;;;0.40;0.40;;;17.20;99.90;;;;;;5016760;28;20021;-77
2022/05/26 10:26:47;;;;;;;1.65;0.60;;;17.10;99.90;;;;;;5026702;28;20025;-77
2022/05/26 10:29:19;;;;;;;2.83;0.80;;;17.10;99.90;;;;;;5023271;28;20134;-77
2022/05/26 10:32:16;;;;;;;2.70;0.60;;;17.00;99.90;;;;;;5022514;28;20030;-77
2022/05/26 10:35:00;;;;;;;0.90;0.63;;;17.00;99.90;;;;;;5035806;28;20031;-77
2022/05/26 10:37:52;;;;;;;1.90;0.70;;;16.90;99.90;;;;;;5023053;28;20021;-76
2022/05/26 10:40:38;;;;;;;1.02;0.80;;;17.20;99.90;;;;;;5040094;28;20082;-77
2022/05/26 10:43:12;;;;;;;1.75;0.90;;;17.10;99.90;;;;;;5040751;28;20097;-76
2022/05/26 10:45:41;;;;;;;2.03;0.70;;;17.00;99.90;;;;;;5036177;28;20033;-77
2022/05/26 10:48:07;;;;;;;1.25;0.60;;;16.90;99.90;;;;;;5040282;28;20029;-77
2022/05/26 10:50:49;;;;;;;0.80;0.73;;;16.80;99.90;;;;;;5049431;28;20040;-77
2022/05/26 10:53:37;;;;;;;4.22;0.90;;;16.90;99.90;;;;;;5043304;28;20067;-77
2022/05/26 10:56:21;;;;;;;1.15;0.60;;;16.80;99.90;;;;;;5024165;28;20083;-77
2022/05/26 10:58:51;;;;;;;1.73;0.70;;;16.70;99.90;;;;;;5040243;28;20025;-77
2022/05/26 11:01:40;;;;;;;1.17;0.80;;;16.80;99.90;;;;;;5026371;28;20029;-79
2022/05/26 11:04:27;;;;;;;0.77;0.70;;;16.90;99.90;;;;;;5044940;28;20021;-78
2022/05/26 11:06:57;;;;;;;1.15;0.77;;;16.70;99.90;;;;;;5023530;28;20032;-77
2022/05/26 11:09:42;;;;;;;1.63;0.65;;;17.10;99.90;;;;;;5038594;28;20079;-78
2022/05/26 11:12:17;;;;;;;0.73;0.60;;;17.40;99.90;;;;;;5044922;28;20124;-76
2022/05/26 11:17:52;;;;;;;2.95;0.57;;;18.40;99.90;;;;;;5035005;28;20164;-77
2022/05/26 11:20:28;;;;;;;2.15;0.95;;;18.40;99.90;;;;;;5044365;28;20505;-75
2022/05/26 11:22:57;;;;;;;0.50;0.50;;;18.10;99.90;;;;;;5026077;28;20138;-74
2022/05/26 11:25:37;;;;;;;1.35;0.57;;;18.00;99.90;;;;;;5015833;28;20329;-72
2022/05/26 11:28:39;;;;;;;2.15;0.50;;;17.90;99.90;;;;;;5051260;28;20021;-77
2022/05/26 11:36:59;;;;;;;2.25;0.65;;;17.90;99.90;;;;;;5044012;28;20032;-78
2022/05/26 11:39:37;;;;;;;0.80;0.55;;;18.20;99.90;;;;;;5042325;28;20032;-77
2022/05/26 11:42:07;;;;;;;1.02;0.70;;;18.20;99.90;;;;;;5050695;28;20049;-77
2022/05/26 11:44:45;;;;;;;1.25;0.45;;;18.30;99.90;;;;;;5051128;28;20028;-77
2022/05/26 11:47:32;;;;;;;1.95;0.70;;;18.20;99.90;;;;;;5051036;28;20103;-77
2022/05/26 11:49:57;;;;;;;1.30;0.40;;;17.90;99.90;;;;;;5033124;28;20029;-77
2022/05/26 11:52:27;;;;;;;1.52;0.68;;;18.30;99.90;;;;;;5050684;28;20105;-77
2022/05/26 11:54:53;;;;;;;2.80;0.60;;;18.60;99.90;;;;;;5051298;28;20075;-76
2022/05/26 11:57:57;;;;;;;1.55;0.50;;;19.40;99.90;;;;;;5051487;28;20013;-77
2022/05/26 12:00:35;;;;;;;2.88;0.65;;;19.50;99.90;;;;;;5049412;28;20120;-77
2022/05/26 12:03:27;;;;;;;0.60;0.50;;;19.70;99.90;;;;;;5051520;28;20032;-78
2022/05/26 12:06:11;;;;;;;1.35;0.60;;;19.30;99.90;;;;;;5051261;28;20024;-78
2022/05/26 12:08:43;;;;;;;2.75;0.50;;;19.20;99.90;;;;;;5051255;28;20070;-77
2022/05/26 12:11:11;;;;;;;2.97;0.80;;;19.10;99.90;;;;;;5054595;28;20040;-77
2022/05/26 12:13:39;;;;;;;0.60;0.60;;;18.90;99.90;;;;;;5043067;28;20040;-77
2022/05/26 12:16:10;;;;;;;1.38;0.70;;;19.10;99.90;;;;;;5062233;28;20134;-77
2022/05/26 12:18:55;;;;;;;1.48;0.60;;;18.90;99.90;;;;;;5062221;28;20032;-77
2022/05/26 12:21:27;;;;;;;0.90;0.70;;;19.70;99.90;;;;;;5040824;28;20364;-77
2022/05/26 12:23:56;;;;;;;2.53;0.82;;;19.90;99.90;;;;;;5024460;28;20399;-77
2022/05/26 12:26:28;;;;;;;1.13;0.70;;;19.30;99.90;;;;;;5050451;28;20022;-77
2022/05/26 12:28:56;;;;;;;0.70;0.55;;;19.60;99.90;;;;;;5023526;28;20187;-77
2022/05/26 12:31:21;;;;;;;1.42;0.70;;;19.90;99.90;;;;;;5040532;28;20037;-77
2022/05/26 12:34:07;;;;;;;0.50;0.50;;;20.70;99.90;;;;;;5041852;28;20030;-77
2022/05/26 12:36:48;;;;;;;2.13;0.80;;;20.50;99.90;;;;;;5024703;28;20491;-77
2022/05/26 12:39:43;;;;;;;2.22;0.70;;;20.50;99.90;;;;;;5042276;28;20080;-77
2022/05/26 12:42:22;;;;;;;0.60;0.55;;;21.30;99.90;;;;;;5041951;28;20029;-77
2022/05/26 12:45:07;;;;;;;1.23;0.82;;;20.80;99.90;;;;;;5024615;28;20026;-77
2022/05/26 12:47:47;;;;;;;1.20;0.73;;;21.50;99.90;;;;;;5042611;28;20056;-77
2022/05/26 12:50:19;;;;;;;1.52;0.60;;;21.60;99.90;;;;;;5061644;28;20153;-77
2022/05/26 12:52:57;;;;;;;1.38;0.80;;;22.10;99.90;;;;;;5062077;28;20025;-77
2022/05/26 12:55:45;;;;;;;1.98;0.82;;;21.70;99.90;;;;;;5044155;28;20057;-77
2022/05/26 12:58:19;;;;;;;0.82;0.60;;;20.70;99.90;;;;;;5063739;28;20025;-77
2022/05/26 13:00:48;;;;;;;1.67;0.73;;;20.20;99.90;;;;;;5043145;28;20029;-77
2022/05/26 13:03:21;;;;;;;1.40;0.60;;;19.90;99.90;;;;;;5063059;28;20025;-77
2022/05/26 13:05:53;;;;;;;1.42;0.70;;;19.80;99.90;;;;;;5062891;28;20035;-77
2022/05/26 13:08:23;;;;;;;1.65;0.57;;;19.70;99.90;;;;;;5062428;28;20028;-77
2022/05/26 13:10:53;;;;;;;1.48;0.60;;;19.70;99.90;;;;;;5060349;28;20047;-77
2022/05/26 13:13:24;;;;;;;1.15;0.70;;;19.40;99.90;;;;;;5044851;28;20036;-77
2022/05/26 13:15:50;;;;;;;3.80;0.95;;;19.10;99.90;;;;;;5044018;28;20036;-77
2022/05/26 13:18:17;;;;;;;2.80;0.80;;;19.10;99.90;;;;;;5043460;28;20017;-77
2022/05/26 13:20:43;;;;;;;2.63;0.80;;;19.10;99.90;;;;;;5044126;28;20021;-77
2022/05/26 13:23:09;;;;;;;1.20;0.60;;;19.00;99.90;;;;;;5022578;28;20037;-77
2022/05/26 13:25:35;;;;;;;0.98;0.55;;;19.10;99.90;;;;;;5050501;28;20024;-77
2022/05/26 13:28:06;;;;;;;1.95;0.80;;;19.30;99.90;;;;;;5034527;28;20013;-78
2022/05/26 13:33:26;;;;;;;2.67;0.70;;;19.10;99.90;;;;;;5033884;28;20064;-77
2022/05/26 13:36:01;;;;;;;1.42;0.80;;;19.00;99.90;;;;;;5018561;28;20025;-77
2022/05/26 13:38:46;;;;;;;0.93;0.80;;;19.10;99.90;;;;;;5041773;28;20030;-77
2022/05/26 13:41:21;;;;;;;3.75;1.00;;;19.30;99.90;;;;;;5041622;28;20028;-77
2022/05/26 13:43:48;;;;;;;1.40;0.68;;;18.80;99.90;;;;;;5041945;28;20116;-77
2022/05/26 13:46:23;;;;;;;1.10;0.88;;;18.90;99.90;;;;;;5041034;28;20112;-77
2022/05/26 13:48:54;;;;;;;1.38;0.82;;;19.50;99.90;;;;;;5023640;28;20037;-77
2022/05/26 13:51:28;;;;;;;1.38;0.80;;;19.40;99.90;;;;;;5040886;28;20386;-77
2022/05/26 13:54:35;;;;;;;1.30;0.60;;;19.30;99.90;;;;;;5023419;28;20022;-77
2022/05/26 13:57:10;;;;;;;1.55;0.77;;;19.30;99.90;;;;;;5041661;28;20023;-77